sensor_id;sensor_type;location;lat;lon;timestamp;temperature;humidity
44477;DHT22;30180;44.788;10.366;2023-04-15T00:01:09;17.70;61.80
44477;DHT22;30180;44.788;10.366;2023-04-15T00:03:51;17.80;61.80
44477;DHT22;30180;44.788;10.366;2023-04-15T00:06:20;17.80;61.80
44477;DHT22;30180;44.788;10.366;2023-04-15T00:08:50;17.80;61.80
44477;DHT22;30180;44.788;10.366;2023-04-15T00:11:28;17.80;61.80
44477;DHT22;30180;44.788;10.366;2023-04-15T00:13:58;17.70;61.80
44477;DHT22;30180;44.788;10.366;2023-04-15T00:16:30;17.80;61.80
44477;DHT22;30180;44.788;10.366;2023-04-15T00:19:00;17.80;61.80
44477;DHT22;30180;44.788;10.366;2023-04-15T00:21:28;17.80;61.80
44477;DHT22;30180;44.788;10.366;2023-04-15T00:24:00;17.70;61.80
44477;DHT22;30180;44.788;10.366;2023-04-15T00:26:29;17.70;61.80
44477;DHT22;30180;44.788;10.366;2023-04-15T00:28:57;17.80;61.90
44477;DHT22;30180;44.788;10.366;2023-04-15T00:31:26;17.70;61.80
44477;DHT22;30180;44.788;10.366;2023-04-15T00:33:55;17.70;61.80
44477;DHT22;30180;44.788;10.366;2023-04-15T00:36:24;17.80;61.90
44477;DHT22;30180;44.788;10.366;2023-04-15T00:38:52;17.70;61.80
44477;DHT22;30180;44.788;10.366;2023-04-15T00:41:21;17.70;61.80
44477;DHT22;30180;44.788;10.366;2023-04-15T00:43:50;17.70;61.80
44477;DHT22;30180;44.788;10.366;2023-04-15T00:46:19;17.70;61.80
44477;DHT22;30180;44.788;10.366;2023-04-15T00:48:47;17.70;61.80
44477;DHT22;30180;44.788;10.366;2023-04-15T00:51:17;17.70;61.80
44477;DHT22;30180;44.788;10.366;2023-04-15T00:53:45;17.70;61.80
44477;DHT22;30180;44.788;10.366;2023-04-15T00:56:14;17.70;61.80
44477;DHT22;30180;44.788;10.366;2023-04-15T00:58:42;17.70;61.90
44477;DHT22;30180;44.788;10.366;2023-04-15T01:01:10;17.70;61.80
44477;DHT22;30180;44.788;10.366;2023-04-15T01:03:39;17.70;61.80
44477;DHT22;30180;44.788;10.366;2023-04-15T01:06:07;17.70;61.90
44477;DHT22;30180;44.788;10.366;2023-04-15T01:08:37;17.70;61.90
44477;DHT22;30180;44.788;10.366;2023-04-15T01:11:05;17.70;61.90
44477;DHT22;30180;44.788;10.366;2023-04-15T01:13:35;17.80;61.90
44477;DHT22;30180;44.788;10.366;2023-04-15T01:16:04;17.70;61.90
44477;DHT22;30180;44.788;10.366;2023-04-15T01:18:33;17.80;61.90
44477;DHT22;30180;44.788;10.366;2023-04-15T01:21:04;17.70;61.90
44477;DHT22;30180;44.788;10.366;2023-04-15T01:23:36;17.70;61.90
44477;DHT22;30180;44.788;10.366;2023-04-15T01:26:07;17.70;61.90
44477;DHT22;30180;44.788;10.366;2023-04-15T01:28:36;17.70;61.90
44477;DHT22;30180;44.788;10.366;2023-04-15T01:31:06;17.70;62.50
44477;DHT22;30180;44.788;10.366;2023-04-15T01:33:34;17.70;61.90
44477;DHT22;30180;44.788;10.366;2023-04-15T01:36:03;17.70;61.90
44477;DHT22;30180;44.788;10.366;2023-04-15T01:38:33;17.70;61.90
44477;DHT22;30180;44.788;10.366;2023-04-15T01:41:01;17.70;61.90
44477;DHT22;30180;44.788;10.366;2023-04-15T01:43:31;17.70;61.90
44477;DHT22;30180;44.788;10.366;2023-04-15T01:46:00;17.70;61.90
44477;DHT22;30180;44.788;10.366;2023-04-15T01:48:28;17.70;61.90
44477;DHT22;30180;44.788;10.366;2023-04-15T01:50:57;17.70;61.90
44477;DHT22;30180;44.788;10.366;2023-04-15T01:53:26;17.70;61.90
44477;DHT22;30180;44.788;10.366;2023-04-15T01:55:54;17.70;61.90
44477;DHT22;30180;44.788;10.366;2023-04-15T01:58:22;17.70;61.90
44477;DHT22;30180;44.788;10.366;2023-04-15T02:00:52;17.70;61.90
44477;DHT22;30180;44.788;10.366;2023-04-15T02:03:20;17.70;61.90
44477;DHT22;30180;44.788;10.366;2023-04-15T02:05:49;17.70;61.90
44477;DHT22;30180;44.788;10.366;2023-04-15T02:08:18;17.70;61.90
44477;DHT22;30180;44.788;10.366;2023-04-15T02:10:46;17.70;61.90
44477;DHT22;30180;44.788;10.366;2023-04-15T02:13:14;17.70;62.00
44477;DHT22;30180;44.788;10.366;2023-04-15T02:15:46;17.70;62.00
44477;DHT22;30180;44.788;10.366;2023-04-15T02:18:16;17.70;61.90
44477;DHT22;30180;44.788;10.366;2023-04-15T02:20:44;17.70;62.00
44477;DHT22;30180;44.788;10.366;2023-04-15T02:23:13;17.70;61.90
44477;DHT22;30180;44.788;10.366;2023-04-15T02:25:41;17.70;61.90
44477;DHT22;30180;44.788;10.366;2023-04-15T02:28:19;17.70;61.90
44477;DHT22;30180;44.788;10.366;2023-04-15T02:30:48;17.70;61.90
44477;DHT22;30180;44.788;10.366;2023-04-15T02:33:21;17.70;61.90
44477;DHT22;30180;44.788;10.366;2023-04-15T02:35:49;17.70;62.00
44477;DHT22;30180;44.788;10.366;2023-04-15T02:38:19;17.70;62.00
44477;DHT22;30180;44.788;10.366;2023-04-15T02:40:47;17.70;62.00
44477;DHT22;30180;44.788;10.366;2023-04-15T02:43:16;17.70;62.00
44477;DHT22;30180;44.788;10.366;2023-04-15T02:45:45;17.70;62.00
44477;DHT22;30180;44.788;10.366;2023-04-15T02:48:13;17.70;62.00
44477;DHT22;30180;44.788;10.366;2023-04-15T02:50:45;17.70;61.90
44477;DHT22;30180;44.788;10.366;2023-04-15T02:53:13;17.70;62.00
44477;DHT22;30180;44.788;10.366;2023-04-15T02:55:43;17.70;62.00
44477;DHT22;30180;44.788;10.366;2023-04-15T02:58:12;17.70;61.90
44477;DHT22;30180;44.788;10.366;2023-04-15T03:00:40;17.70;62.00
44477;DHT22;30180;44.788;10.366;2023-04-15T03:03:08;17.70;62.00
44477;DHT22;30180;44.788;10.366;2023-04-15T03:05:37;17.70;62.00
44477;DHT22;30180;44.788;10.366;2023-04-15T03:08:07;17.70;62.00
44477;DHT22;30180;44.788;10.366;2023-04-15T03:10:35;17.60;61.90
44477;DHT22;30180;44.788;10.366;2023-04-15T03:13:03;17.70;62.00
44477;DHT22;30180;44.788;10.366;2023-04-15T03:15:32;17.60;61.90
44477;DHT22;30180;44.788;10.366;2023-04-15T03:18:00;17.70;62.00
44477;DHT22;30180;44.788;10.366;2023-04-15T03:20:28;17.60;62.00
44477;DHT22;30180;44.788;10.366;2023-04-15T03:22:57;17.70;62.00
44477;DHT22;30180;44.788;10.366;2023-04-15T03:25:27;17.70;62.00
44477;DHT22;30180;44.788;10.366;2023-04-15T03:27:55;17.70;62.10
44477;DHT22;30180;44.788;10.366;2023-04-15T03:30:24;17.70;62.10
44477;DHT22;30180;44.788;10.366;2023-04-15T03:32:52;17.70;62.10
44477;DHT22;30180;44.788;10.366;2023-04-15T03:35:20;17.70;62.10
44477;DHT22;30180;44.788;10.366;2023-04-15T03:37:49;17.70;62.10
44477;DHT22;30180;44.788;10.366;2023-04-15T03:40:17;17.70;62.10
44477;DHT22;30180;44.788;10.366;2023-04-15T03:42:47;17.70;62.20
44477;DHT22;30180;44.788;10.366;2023-04-15T03:45:15;17.70;62.10
44477;DHT22;30180;44.788;10.366;2023-04-15T03:47:44;17.70;62.10
44477;DHT22;30180;44.788;10.366;2023-04-15T03:50:12;17.80;62.20
44477;DHT22;30180;44.788;10.366;2023-04-15T03:52:40;17.80;62.20
44477;DHT22;30180;44.788;10.366;2023-04-15T03:55:09;17.80;62.20
44477;DHT22;30180;44.788;10.366;2023-04-15T03:57:37;17.80;62.20
44477;DHT22;30180;44.788;10.366;2023-04-15T04:00:08;17.80;62.20
44477;DHT22;30180;44.788;10.366;2023-04-15T04:02:37;17.80;62.20
44477;DHT22;30180;44.788;10.366;2023-04-15T04:05:05;17.90;62.30
44477;DHT22;30180;44.788;10.366;2023-04-15T04:07:34;17.90;62.30
44477;DHT22;30180;44.788;10.366;2023-04-15T04:10:02;17.80;62.20
44477;DHT22;30180;44.788;10.366;2023-04-15T04:12:31;17.90;62.30
44477;DHT22;30180;44.788;10.366;2023-04-15T04:14:59;17.90;62.30
44477;DHT22;30180;44.788;10.366;2023-04-15T04:17:29;17.90;62.30
44477;DHT22;30180;44.788;10.366;2023-04-15T04:19:57;17.90;62.30
44477;DHT22;30180;44.788;10.366;2023-04-15T04:22:25;18.00;62.30
44477;DHT22;30180;44.788;10.366;2023-04-15T04:24:53;17.90;62.30
44477;DHT22;30180;44.788;10.366;2023-04-15T04:27:22;18.00;62.30
44477;DHT22;30180;44.788;10.366;2023-04-15T04:29:50;17.90;62.30
44477;DHT22;30180;44.788;10.366;2023-04-15T04:32:19;17.90;62.20
44477;DHT22;30180;44.788;10.366;2023-04-15T04:34:48;18.00;62.30
44477;DHT22;30180;44.788;10.366;2023-04-15T04:37:17;18.00;62.30
44477;DHT22;30180;44.788;10.366;2023-04-15T04:39:45;18.00;62.30
44477;DHT22;30180;44.788;10.366;2023-04-15T04:42:13;17.90;62.20
44477;DHT22;30180;44.788;10.366;2023-04-15T04:44:42;17.90;62.20
44477;DHT22;30180;44.788;10.366;2023-04-15T04:47:10;18.00;62.20
44477;DHT22;30180;44.788;10.366;2023-04-15T04:49:38;18.00;62.30
44477;DHT22;30180;44.788;10.366;2023-04-15T04:52:08;18.00;62.30
44477;DHT22;30180;44.788;10.366;2023-04-15T04:54:36;18.00;62.30
44477;DHT22;30180;44.788;10.366;2023-04-15T04:57:04;18.00;62.20
44477;DHT22;30180;44.788;10.366;2023-04-15T04:59:33;18.00;62.20
44477;DHT22;30180;44.788;10.366;2023-04-15T05:02:02;18.00;62.20
44477;DHT22;30180;44.788;10.366;2023-04-15T05:04:30;18.00;62.20
44477;DHT22;30180;44.788;10.366;2023-04-15T05:06:58;18.00;62.20
44477;DHT22;30180;44.788;10.366;2023-04-15T05:09:28;18.00;62.20
44477;DHT22;30180;44.788;10.366;2023-04-15T05:11:58;18.00;62.20
44477;DHT22;30180;44.788;10.366;2023-04-15T05:14:27;18.00;62.20
44477;DHT22;30180;44.788;10.366;2023-04-15T05:16:55;18.00;62.20
44477;DHT22;30180;44.788;10.366;2023-04-15T05:19:23;18.00;62.20
44477;DHT22;30180;44.788;10.366;2023-04-15T05:21:51;18.00;62.20
44477;DHT22;30180;44.788;10.366;2023-04-15T05:24:20;18.00;62.20
44477;DHT22;30180;44.788;10.366;2023-04-15T05:26:49;18.00;62.20
44477;DHT22;30180;44.788;10.366;2023-04-15T05:29:17;18.00;62.20
44477;DHT22;30180;44.788;10.366;2023-04-15T05:31:46;18.00;62.20
44477;DHT22;30180;44.788;10.366;2023-04-15T05:34:14;18.00;62.20
44477;DHT22;30180;44.788;10.366;2023-04-15T05:36:43;18.00;62.20
44477;DHT22;30180;44.788;10.366;2023-04-15T05:39:11;18.00;62.20
44477;DHT22;30180;44.788;10.366;2023-04-15T05:41:40;18.00;62.20
44477;DHT22;30180;44.788;10.366;2023-04-15T05:44:09;18.00;62.20
44477;DHT22;30180;44.788;10.366;2023-04-15T05:46:38;18.00;62.20
44477;DHT22;30180;44.788;10.366;2023-04-15T05:49:06;18.00;62.20
44477;DHT22;30180;44.788;10.366;2023-04-15T05:51:34;18.00;62.20
44477;DHT22;30180;44.788;10.366;2023-04-15T05:54:03;18.00;62.20
44477;DHT22;30180;44.788;10.366;2023-04-15T05:56:31;18.00;62.20
44477;DHT22;30180;44.788;10.366;2023-04-15T05:58:59;17.90;62.10
44477;DHT22;30180;44.788;10.366;2023-04-15T06:01:30;18.00;62.20
44477;DHT22;30180;44.788;10.366;2023-04-15T06:03:58;18.00;62.20
44477;DHT22;30180;44.788;10.366;2023-04-15T06:06:26;17.90;62.10
44477;DHT22;30180;44.788;10.366;2023-04-15T06:08:54;17.90;62.20
44477;DHT22;30180;44.788;10.366;2023-04-15T06:11:23;17.90;62.10
44477;DHT22;30180;44.788;10.366;2023-04-15T06:13:52;17.90;62.10
44477;DHT22;30180;44.788;10.366;2023-04-15T06:16:20;17.90;62.10
44477;DHT22;30180;44.788;10.366;2023-04-15T06:18:50;17.90;62.10
44477;DHT22;30180;44.788;10.366;2023-04-15T06:21:18;17.90;62.10
44477;DHT22;30180;44.788;10.366;2023-04-15T06:23:47;17.90;62.20
44477;DHT22;30180;44.788;10.366;2023-04-15T06:26:15;17.90;62.10
44477;DHT22;30180;44.788;10.366;2023-04-15T06:28:43;18.00;62.20
44477;DHT22;30180;44.788;10.366;2023-04-15T06:31:12;17.90;62.20
44477;DHT22;30180;44.788;10.366;2023-04-15T06:33:40;17.90;62.20
44477;DHT22;30180;44.788;10.366;2023-04-15T06:36:10;18.00;62.20
44477;DHT22;30180;44.788;10.366;2023-04-15T06:38:38;17.90;62.20
44477;DHT22;30180;44.788;10.366;2023-04-15T06:41:06;17.90;62.10
44477;DHT22;30180;44.788;10.366;2023-04-15T06:43:34;17.90;62.10
44477;DHT22;30180;44.788;10.366;2023-04-15T06:46:03;17.90;62.20
44477;DHT22;30180;44.788;10.366;2023-04-15T06:48:31;17.90;62.20
44477;DHT22;30180;44.788;10.366;2023-04-15T06:50:59;17.90;62.10
44477;DHT22;30180;44.788;10.366;2023-04-15T06:53:29;17.90;62.50
44477;DHT22;30180;44.788;10.366;2023-04-15T06:55:57;18.00;62.20
44477;DHT22;30180;44.788;10.366;2023-04-15T06:58:26;17.90;62.20
44477;DHT22;30180;44.788;10.366;2023-04-15T07:00:55;17.90;62.20
44477;DHT22;30180;44.788;10.366;2023-04-15T07:03:23;17.90;62.20
44477;DHT22;30180;44.788;10.366;2023-04-15T07:05:51;17.90;62.20
44477;DHT22;30180;44.788;10.366;2023-04-15T07:08:21;17.90;62.20
44477;DHT22;30180;44.788;10.366;2023-04-15T07:10:51;17.90;62.20
44477;DHT22;30180;44.788;10.366;2023-04-15T07:13:20;17.90;62.20
44477;DHT22;30180;44.788;10.366;2023-04-15T07:15:48;17.90;62.20
44477;DHT22;30180;44.788;10.366;2023-04-15T07:18:16;17.90;62.20
44477;DHT22;30180;44.788;10.366;2023-04-15T07:20:44;17.90;62.20
44477;DHT22;30180;44.788;10.366;2023-04-15T07:23:12;17.90;62.20
44477;DHT22;30180;44.788;10.366;2023-04-15T07:25:40;17.90;62.20
44477;DHT22;30180;44.788;10.366;2023-04-15T07:28:10;17.90;62.20
44477;DHT22;30180;44.788;10.366;2023-04-15T07:30:38;17.80;62.10
44477;DHT22;30180;44.788;10.366;2023-04-15T07:33:07;17.90;62.20
44477;DHT22;30180;44.788;10.366;2023-04-15T07:35:35;17.90;62.20
44477;DHT22;30180;44.788;10.366;2023-04-15T07:38:04;17.90;62.20
44477;DHT22;30180;44.788;10.366;2023-04-15T07:40:32;17.90;62.20
44477;DHT22;30180;44.788;10.366;2023-04-15T07:43:01;17.90;62.20
44477;DHT22;30180;44.788;10.366;2023-04-15T07:45:30;17.90;62.20
44477;DHT22;30180;44.788;10.366;2023-04-15T07:47:59;17.90;62.20
44477;DHT22;30180;44.788;10.366;2023-04-15T07:50:28;17.90;62.20
44477;DHT22;30180;44.788;10.366;2023-04-15T07:52:56;17.90;62.20
44477;DHT22;30180;44.788;10.366;2023-04-15T07:55:24;17.90;62.20
44477;DHT22;30180;44.788;10.366;2023-04-15T07:57:54;17.80;62.20
44477;DHT22;30180;44.788;10.366;2023-04-15T08:00:22;17.80;62.20
44477;DHT22;30180;44.788;10.366;2023-04-15T08:02:52;17.80;62.20
44477;DHT22;30180;44.788;10.366;2023-04-15T08:05:23;17.80;62.20
44477;DHT22;30180;44.788;10.366;2023-04-15T08:07:51;17.80;62.20
44477;DHT22;30180;44.788;10.366;2023-04-15T08:10:20;17.80;62.20
44477;DHT22;30180;44.788;10.366;2023-04-15T08:12:48;17.80;62.20
44477;DHT22;30180;44.788;10.366;2023-04-15T08:15:20;17.80;62.20
44477;DHT22;30180;44.788;10.366;2023-04-15T08:17:48;17.80;62.20
44477;DHT22;30180;44.788;10.366;2023-04-15T08:20:18;17.80;62.20
44477;DHT22;30180;44.788;10.366;2023-04-15T08:22:46;17.80;62.20
44477;DHT22;30180;44.788;10.366;2023-04-15T08:25:18;17.80;62.20
44477;DHT22;30180;44.788;10.366;2023-04-15T08:27:47;17.70;62.20
44477;DHT22;30180;44.788;10.366;2023-04-15T08:30:15;17.80;62.20
44477;DHT22;30180;44.788;10.366;2023-04-15T08:32:45;17.80;62.20
44477;DHT22;30180;44.788;10.366;2023-04-15T08:35:14;17.80;62.80
44477;DHT22;30180;44.788;10.366;2023-04-15T08:37:43;17.80;62.20
44477;DHT22;30180;44.788;10.366;2023-04-15T08:40:12;17.80;62.20
44477;DHT22;30180;44.788;10.366;2023-04-15T08:42:43;17.80;62.20
44477;DHT22;30180;44.788;10.366;2023-04-15T08:45:12;17.70;62.10
44477;DHT22;30180;44.788;10.366;2023-04-15T08:47:41;17.80;62.20
44477;DHT22;30180;44.788;10.366;2023-04-15T08:50:10;17.70;62.10
44477;DHT22;30180;44.788;10.366;2023-04-15T08:52:39;17.70;62.10
44477;DHT22;30180;44.788;10.366;2023-04-15T08:55:10;17.70;62.10
44477;DHT22;30180;44.788;10.366;2023-04-15T08:57:38;17.70;62.10
44477;DHT22;30180;44.788;10.366;2023-04-15T09:00:08;17.70;62.10
44477;DHT22;30180;44.788;10.366;2023-04-15T09:02:36;17.70;62.10
44477;DHT22;30180;44.788;10.366;2023-04-15T09:05:06;17.70;62.00
44477;DHT22;30180;44.788;10.366;2023-04-15T09:07:35;17.70;61.90
44477;DHT22;30180;44.788;10.366;2023-04-15T09:10:04;17.60;61.90
44477;DHT22;30180;44.788;10.366;2023-04-15T09:12:35;17.60;61.90
44477;DHT22;30180;44.788;10.366;2023-04-15T09:15:04;17.60;61.90
44477;DHT22;30180;44.788;10.366;2023-04-15T09:17:33;17.60;61.90
44477;DHT22;30180;44.788;10.366;2023-04-15T09:20:08;17.60;61.90
44477;DHT22;30180;44.788;10.366;2023-04-15T09:22:36;17.60;61.90
44477;DHT22;30180;44.788;10.366;2023-04-15T09:25:24;17.60;61.90
44477;DHT22;30180;44.788;10.366;2023-04-15T09:27:56;17.60;61.90
44477;DHT22;30180;44.788;10.366;2023-04-15T09:30:25;17.60;61.90
44477;DHT22;30180;44.788;10.366;2023-04-15T09:32:55;17.60;61.90
44477;DHT22;30180;44.788;10.366;2023-04-15T09:35:25;17.60;62.00
44477;DHT22;30180;44.788;10.366;2023-04-15T09:38:02;17.60;62.00
44477;DHT22;30180;44.788;10.366;2023-04-15T09:40:31;17.60;62.00
44477;DHT22;30180;44.788;10.366;2023-04-15T09:43:01;17.70;62.00
44477;DHT22;30180;44.788;10.366;2023-04-15T09:45:30;17.70;62.00
44477;DHT22;30180;44.788;10.366;2023-04-15T09:48:14;17.70;61.90
44477;DHT22;30180;44.788;10.366;2023-04-15T09:50:43;17.70;61.70
44477;DHT22;30180;44.788;10.366;2023-04-15T09:53:15;17.70;61.70
44477;DHT22;30180;44.788;10.366;2023-04-15T09:55:45;17.60;61.60
44477;DHT22;30180;44.788;10.366;2023-04-15T09:58:22;17.60;62.20
44477;DHT22;30180;44.788;10.366;2023-04-15T10:00:52;17.60;61.60
44477;DHT22;30180;44.788;10.366;2023-04-15T10:03:22;17.60;61.50
44477;DHT22;30180;44.788;10.366;2023-04-15T10:05:52;17.60;61.50
44477;DHT22;30180;44.788;10.366;2023-04-15T10:08:21;17.60;61.50
44477;DHT22;30180;44.788;10.366;2023-04-15T10:10:51;17.60;61.40
44477;DHT22;30180;44.788;10.366;2023-04-15T10:13:22;17.60;61.40
44477;DHT22;30180;44.788;10.366;2023-04-15T10:15:56;17.60;61.30
44477;DHT22;30180;44.788;10.366;2023-04-15T10:18:26;17.60;61.30
44477;DHT22;30180;44.788;10.366;2023-04-15T10:20:54;17.60;61.30
44477;DHT22;30180;44.788;10.366;2023-04-15T10:23:23;17.60;61.20
44477;DHT22;30180;44.788;10.366;2023-04-15T10:25:52;17.50;61.10
44477;DHT22;30180;44.788;10.366;2023-04-15T10:28:22;17.50;61.10
44477;DHT22;30180;44.788;10.366;2023-04-15T10:30:51;17.50;61.00
44477;DHT22;30180;44.788;10.366;2023-04-15T10:33:22;17.50;61.00
44477;DHT22;30180;44.788;10.366;2023-04-15T10:35:52;17.50;61.00
44477;DHT22;30180;44.788;10.366;2023-04-15T10:38:31;17.50;60.90
44477;DHT22;30180;44.788;10.366;2023-04-15T10:41:17;17.50;60.90
44477;DHT22;30180;44.788;10.366;2023-04-15T10:43:50;17.50;60.80
44477;DHT22;30180;44.788;10.366;2023-04-15T10:46:21;17.50;60.80
44477;DHT22;30180;44.788;10.366;2023-04-15T10:48:52;17.50;60.70
44477;DHT22;30180;44.788;10.366;2023-04-15T10:51:29;17.50;60.70
44477;DHT22;30180;44.788;10.366;2023-04-15T10:53:59;17.50;60.70
44477;DHT22;30180;44.788;10.366;2023-04-15T10:56:28;17.50;60.70
44477;DHT22;30180;44.788;10.366;2023-04-15T10:58:59;17.50;60.60
44477;DHT22;30180;44.788;10.366;2023-04-15T11:01:50;17.50;60.60
44477;DHT22;30180;44.788;10.366;2023-04-15T11:04:51;17.50;60.60
44477;DHT22;30180;44.788;10.366;2023-04-15T11:07:40;17.60;60.60
44477;DHT22;30180;44.788;10.366;2023-04-15T11:13:28;17.60;60.50
44477;DHT22;30180;44.788;10.366;2023-04-15T11:16:01;17.60;60.40
44477;DHT22;30180;44.788;10.366;2023-04-15T11:18:31;17.60;60.40
44477;DHT22;30180;44.788;10.366;2023-04-15T11:21:02;17.60;60.40
44477;DHT22;30180;44.788;10.366;2023-04-15T11:23:33;17.60;60.30
44477;DHT22;30180;44.788;10.366;2023-04-15T11:26:03;17.60;60.30
44477;DHT22;30180;44.788;10.366;2023-04-15T11:28:35;17.60;60.20
44477;DHT22;30180;44.788;10.366;2023-04-15T11:31:08;17.60;60.20
44477;DHT22;30180;44.788;10.366;2023-04-15T11:33:44;17.60;60.20
44477;DHT22;30180;44.788;10.366;2023-04-15T11:36:13;17.60;60.10
44477;DHT22;30180;44.788;10.366;2023-04-15T11:38:43;17.60;60.10
44477;DHT22;30180;44.788;10.366;2023-04-15T11:41:12;17.60;60.00
44477;DHT22;30180;44.788;10.366;2023-04-15T11:43:40;17.60;60.00
44477;DHT22;30180;44.788;10.366;2023-04-15T11:46:10;17.60;59.90
44477;DHT22;30180;44.788;10.366;2023-04-15T11:48:41;17.70;60.00
44477;DHT22;30180;44.788;10.366;2023-04-15T11:51:10;17.60;59.90
44477;DHT22;30180;44.788;10.366;2023-04-15T11:53:41;17.70;59.90
44477;DHT22;30180;44.788;10.366;2023-04-15T11:56:10;17.70;59.90
44477;DHT22;30180;44.788;10.366;2023-04-15T11:58:43;17.70;59.80
44477;DHT22;30180;44.788;10.366;2023-04-15T12:01:13;17.70;59.80
44477;DHT22;30180;44.788;10.366;2023-04-15T12:03:43;17.70;59.80
44477;DHT22;30180;44.788;10.366;2023-04-15T12:06:17;17.70;59.70
44477;DHT22;30180;44.788;10.366;2023-04-15T12:08:56;17.70;59.70
44477;DHT22;30180;44.788;10.366;2023-04-15T12:11:33;17.70;59.70
44477;DHT22;30180;44.788;10.366;2023-04-15T12:14:04;17.70;59.60
44477;DHT22;30180;44.788;10.366;2023-04-15T12:16:35;17.70;59.60
44477;DHT22;30180;44.788;10.366;2023-04-15T12:19:16;17.70;59.50
44477;DHT22;30180;44.788;10.366;2023-04-15T12:21:46;17.70;59.50
44477;DHT22;30180;44.788;10.366;2023-04-15T12:24:20;17.70;59.50
44477;DHT22;30180;44.788;10.366;2023-04-15T12:26:49;17.70;59.50
44477;DHT22;30180;44.788;10.366;2023-04-15T12:29:19;17.70;59.50
44477;DHT22;30180;44.788;10.366;2023-04-15T12:31:55;17.70;59.50
44477;DHT22;30180;44.788;10.366;2023-04-15T12:34:28;17.70;59.50
44477;DHT22;30180;44.788;10.366;2023-04-15T12:36:57;17.70;59.40
44477;DHT22;30180;44.788;10.366;2023-04-15T12:39:28;17.70;59.40
44477;DHT22;30180;44.788;10.366;2023-04-15T12:41:57;17.70;59.40
44477;DHT22;30180;44.788;10.366;2023-04-15T12:44:26;17.70;59.30
44477;DHT22;30180;44.788;10.366;2023-04-15T12:46:56;17.60;59.30
44477;DHT22;30180;44.788;10.366;2023-04-15T12:49:25;17.70;59.30
44477;DHT22;30180;44.788;10.366;2023-04-15T12:51:56;17.70;59.30
44477;DHT22;30180;44.788;10.366;2023-04-15T12:54:25;17.70;59.20
44477;DHT22;30180;44.788;10.366;2023-04-15T12:56:54;17.70;59.20
44477;DHT22;30180;44.788;10.366;2023-04-15T12:59:22;17.70;59.20
44477;DHT22;30180;44.788;10.366;2023-04-15T13:01:51;17.70;59.20
44477;DHT22;30180;44.788;10.366;2023-04-15T13:04:22;17.70;59.20
44477;DHT22;30180;44.788;10.366;2023-04-15T13:06:50;17.70;59.10
44477;DHT22;30180;44.788;10.366;2023-04-15T13:09:18;17.70;59.10
44477;DHT22;30180;44.788;10.366;2023-04-15T13:11:47;17.70;59.10
44477;DHT22;30180;44.788;10.366;2023-04-15T13:14:16;17.70;59.10
44477;DHT22;30180;44.788;10.366;2023-04-15T13:16:44;17.70;59.10
44477;DHT22;30180;44.788;10.366;2023-04-15T13:19:13;17.70;59.10
44477;DHT22;30180;44.788;10.366;2023-04-15T13:21:43;17.70;59.10
44477;DHT22;30180;44.788;10.366;2023-04-15T13:24:11;17.60;59.00
44477;DHT22;30180;44.788;10.366;2023-04-15T13:26:39;17.70;59.00
44477;DHT22;30180;44.788;10.366;2023-04-15T13:29:07;17.70;59.10
44477;DHT22;30180;44.788;10.366;2023-04-15T13:31:37;17.70;59.00
44477;DHT22;30180;44.788;10.366;2023-04-15T13:34:05;17.70;59.00
44477;DHT22;30180;44.788;10.366;2023-04-15T13:36:34;17.70;59.00
44477;DHT22;30180;44.788;10.366;2023-04-15T13:39:03;17.70;59.00
44477;DHT22;30180;44.788;10.366;2023-04-15T13:41:32;17.70;59.00
44477;DHT22;30180;44.788;10.366;2023-04-15T13:44:00;17.70;59.00
44477;DHT22;30180;44.788;10.366;2023-04-15T13:46:28;17.70;59.00
44477;DHT22;30180;44.788;10.366;2023-04-15T13:48:57;17.70;59.00
44477;DHT22;30180;44.788;10.366;2023-04-15T13:51:25;17.70;59.00
44477;DHT22;30180;44.788;10.366;2023-04-15T13:53:54;17.70;58.90
44477;DHT22;30180;44.788;10.366;2023-04-15T13:56:25;17.70;58.90
44477;DHT22;30180;44.788;10.366;2023-04-15T13:58:53;17.70;59.00
44477;DHT22;30180;44.788;10.366;2023-04-15T14:01:24;17.70;59.00
44477;DHT22;30180;44.788;10.366;2023-04-15T14:03:53;17.70;58.90
44477;DHT22;30180;44.788;10.366;2023-04-15T14:06:21;17.70;58.90
44477;DHT22;30180;44.788;10.366;2023-04-15T14:08:49;17.70;58.90
44477;DHT22;30180;44.788;10.366;2023-04-15T14:11:18;17.70;58.90
44477;DHT22;30180;44.788;10.366;2023-04-15T14:13:48;17.70;58.90
44477;DHT22;30180;44.788;10.366;2023-04-15T14:16:16;17.70;58.90
44477;DHT22;30180;44.788;10.366;2023-04-15T14:18:45;17.70;58.90
44477;DHT22;30180;44.788;10.366;2023-04-15T14:21:13;17.70;58.90
44477;DHT22;30180;44.788;10.366;2023-04-15T14:23:42;17.70;58.90
44477;DHT22;30180;44.788;10.366;2023-04-15T14:26:10;17.70;58.90
44477;DHT22;30180;44.788;10.366;2023-04-15T14:28:39;17.70;58.90
44477;DHT22;30180;44.788;10.366;2023-04-15T14:31:12;17.70;58.90
44477;DHT22;30180;44.788;10.366;2023-04-15T14:33:41;17.70;58.90
44477;DHT22;30180;44.788;10.366;2023-04-15T14:36:09;17.70;58.90
44477;DHT22;30180;44.788;10.366;2023-04-15T14:38:37;17.70;58.90
44477;DHT22;30180;44.788;10.366;2023-04-15T14:41:07;17.70;58.80
44477;DHT22;30180;44.788;10.366;2023-04-15T14:43:36;17.70;58.90
44477;DHT22;30180;44.788;10.366;2023-04-15T14:46:04;17.70;58.90
44477;DHT22;30180;44.788;10.366;2023-04-15T14:48:34;17.60;58.80
44477;DHT22;30180;44.788;10.366;2023-04-15T14:51:02;17.70;58.90
44477;DHT22;30180;44.788;10.366;2023-04-15T14:53:31;17.70;58.80
44477;DHT22;30180;44.788;10.366;2023-04-15T14:55:59;17.70;58.80
44477;DHT22;30180;44.788;10.366;2023-04-15T14:58:27;17.70;58.90
44477;DHT22;30180;44.788;10.366;2023-04-15T15:00:56;17.70;58.90
44477;DHT22;30180;44.788;10.366;2023-04-15T15:03:24;17.70;58.90
44477;DHT22;30180;44.788;10.366;2023-04-15T15:05:54;17.70;58.90
44477;DHT22;30180;44.788;10.366;2023-04-15T15:08:23;17.60;58.80
44477;DHT22;30180;44.788;10.366;2023-04-15T15:10:51;17.70;58.90
44477;DHT22;30180;44.788;10.366;2023-04-15T15:13:20;17.70;58.90
44477;DHT22;30180;44.788;10.366;2023-04-15T15:15:48;17.70;58.90
44477;DHT22;30180;44.788;10.366;2023-04-15T15:18:16;17.70;58.90
44477;DHT22;30180;44.788;10.366;2023-04-15T15:20:45;17.70;58.90
44477;DHT22;30180;44.788;10.366;2023-04-15T15:23:15;17.70;58.90
44477;DHT22;30180;44.788;10.366;2023-04-15T15:25:44;17.70;58.90
44477;DHT22;30180;44.788;10.366;2023-04-15T15:28:13;17.70;58.90
44477;DHT22;30180;44.788;10.366;2023-04-15T15:30:41;17.70;58.90
44477;DHT22;30180;44.788;10.366;2023-04-15T15:33:09;17.70;58.90